Terminal Aerodrome Forecast
Issued by NWS

Home | Current Version | Previous Version | Text Only | Print | Product List | Glossary Off
Versions: 1 2 3 4 5 6 7 8 9 10 11 12 13 14 15 16 17 18

000
FTUS43 KICT 270400 AAA
TAFRSL
TAF AMD
KRSL 270400Z 2704/2724 07006KT P6SM SCT045
     FM270500 12007KT P6SM VCTS BKN045CB
      TEMPO 2705/2707 VRB20G35KT 2SM +TSRA
     FM270900 14008KT P6SM FEW009 SCT015=

USA.gov is the U.S. government's official web portal to all federal, state and local government web resources and services.